Time;durP1;ratioP1;P1;durP2;ratioP2;P2;SDS_P1;SDS_P2;PMS_P1;PMS_P2;Temp;Humidity;BMP_temperature;BMP_pressure;BME280_temperature;BME280_humidity;BME280_pressure;Samples;Min_cycle;Max_cycle;Signal;HPM_P1;HPM_P2
2024/02/26 00:01:40;;;;;;;14.57;1.70;;;7.50;77.10;;;;;;5035894;28;20185;-80
2024/02/26 00:04:06;;;;;;;14.60;1.80;;;7.50;86.80;;;;;;5036334;28;20158;-80
2024/02/26 00:06:32;;;;;;;14.27;1.43;;;7.50;89.70;;;;;;5035424;28;20480;-81
2024/02/26 00:08:58;;;;;;;14.27;2.00;;;7.40;91.00;;;;;;5039555;28;20186;-81
2024/02/26 00:11:23;;;;;;;13.77;1.63;;;7.40;91.40;;;;;;5040331;28;20224;-81
2024/02/26 00:13:49;;;;;;;14.87;1.80;;;7.30;91.20;;;;;;5038493;28;20448;-80
2024/02/26 00:16:15;;;;;;;14.40;1.73;;;7.30;94.10;;;;;;5039606;28;20582;-80
2024/02/26 00:18:41;;;;;;;14.40;1.50;;;7.30;96.90;;;;;;5039922;28;20212;-81
2024/02/26 00:21:06;;;;;;;14.50;1.87;;;7.20;99.30;;;;;;5040128;28;20182;-80
2024/02/26 00:23:32;;;;;;;14.53;1.80;;;7.20;98.90;;;;;;5040550;28;20169;-80
2024/02/26 00:25:58;;;;;;;14.70;1.63;;;7.20;98.30;;;;;;5040593;28;20631;-80
2024/02/26 00:28:24;;;;;;;15.90;1.90;;;7.10;99.90;;;;;;5022345;28;20182;-81
2024/02/26 00:30:55;;;;;;;14.25;1.40;;;7.10;99.90;;;;;;5039553;28;20424;-80
2024/02/26 00:33:22;;;;;;;14.50;1.80;;;7.10;99.90;;;;;;5039269;28;20516;-81
2024/02/26 00:35:48;;;;;;;16.65;1.75;;;7.10;99.30;;;;;;5040051;28;20650;-80
2024/02/26 00:38:13;;;;;;;14.50;1.42;;;7.10;99.60;;;;;;5021968;28;20198;-80
2024/02/26 00:40:40;;;;;;;14.50;1.53;;;7.10;99.90;;;;;;5040150;28;20606;-80
2024/02/26 00:43:06;;;;;;;13.98;1.60;;;7.20;99.90;;;;;;5039308;28;20678;-81
2024/02/26 00:45:32;;;;;;;14.93;1.90;;;7.10;99.90;;;;;;5039578;28;20166;-81
2024/02/26 00:48:01;;;;;;;15.27;1.30;;;7.10;99.90;;;;;;5039076;28;20178;-81
2024/02/26 00:50:26;;;;;;;14.60;1.67;;;7.10;99.90;;;;;;5038726;28;20431;-81
2024/02/26 00:52:52;;;;;;;14.90;1.60;;;7.10;99.90;;;;;;5038806;28;20170;-80
2024/02/26 00:55:18;;;;;;;14.27;1.30;;;7.10;99.90;;;;;;5021117;28;20192;-80
2024/02/26 00:57:43;;;;;;;14.17;1.17;;;7.10;99.90;;;;;;5038484;28;20205;-80
2024/02/26 01:00:10;;;;;;;14.10;1.30;;;7.10;99.90;;;;;;5041278;28;20268;-81
2024/02/26 01:02:35;;;;;;;14.40;1.50;;;7.10;99.90;;;;;;5043797;28;20578;-82
2024/02/26 01:05:02;;;;;;;15.43;1.43;;;7.10;99.90;;;;;;5041570;28;20188;-81
2024/02/26 01:07:27;;;;;;;13.93;1.63;;;7.10;99.90;;;;;;5041470;28;20531;-82
2024/02/26 01:09:53;;;;;;;13.93;1.40;;;7.10;99.90;;;;;;5041289;28;20287;-82
2024/02/26 01:12:19;;;;;;;23.13;1.60;;;7.10;99.90;;;;;;5041961;28;20166;-82
2024/02/26 01:14:44;;;;;;;14.10;1.40;;;7.00;99.90;;;;;;5041487;28;20170;-82
2024/02/26 01:17:10;;;;;;;14.00;1.37;;;7.00;99.90;;;;;;5042098;28;20549;-81
2024/02/26 01:19:35;;;;;;;13.80;1.50;;;7.00;99.90;;;;;;5040944;28;20172;-82
2024/02/26 01:22:01;;;;;;;13.63;1.30;;;7.00;99.90;;;;;;5041963;28;20245;-82
2024/02/26 01:24:27;;;;;;;16.47;1.57;;;7.00;99.90;;;;;;5040412;28;20292;-81
2024/02/26 01:26:53;;;;;;;14.10;1.40;;;7.00;99.90;;;;;;5041273;28;20572;-82
2024/02/26 01:29:19;;;;;;;13.47;1.20;;;7.00;99.90;;;;;;5042056;28;20400;-82
2024/02/26 01:31:44;;;;;;;16.93;1.40;;;7.00;99.90;;;;;;5041097;28;20417;-81
2024/02/26 01:34:10;;;;;;;13.67;1.30;;;7.00;99.90;;;;;;5041721;28;20161;-81
2024/02/26 01:36:36;;;;;;;15.10;1.88;;;7.00;99.90;;;;;;5040017;28;20193;-81
2024/02/26 01:39:03;;;;;;;14.00;1.50;;;6.90;99.90;;;;;;5041524;28;20244;-81
2024/02/26 01:41:29;;;;;;;14.20;1.30;;;7.00;99.90;;;;;;5040171;28;20574;-82
2024/02/26 01:43:54;;;;;;;14.50;1.87;;;6.90;99.90;;;;;;5041372;28;20158;-81
2024/02/26 01:46:20;;;;;;;14.70;1.37;;;6.90;99.90;;;;;;5041473;28;20237;-82
2024/02/26 01:48:47;;;;;;;19.67;1.50;;;7.00;99.90;;;;;;5041501;28;20166;-81
2024/02/26 01:51:15;;;;;;;13.80;1.45;;;6.90;99.90;;;;;;5039656;28;20194;-82
2024/02/26 01:53:41;;;;;;;14.23;1.60;;;7.00;99.90;;;;;;5041182;28;20609;-81
2024/02/26 01:56:07;;;;;;;13.30;1.13;;;6.90;99.90;;;;;;5041402;28;20197;-81
2024/02/26 01:58:35;;;;;;;14.65;1.10;;;6.90;99.90;;;;;;5040689;28;20444;-82
2024/02/26 02:01:01;;;;;;;13.85;1.33;;;6.80;99.90;;;;;;5040967;28;20182;-82
2024/02/26 02:03:28;;;;;;;13.40;1.10;;;6.80;99.90;;;;;;5022737;28;20770;-82
2024/02/26 02:05:54;;;;;;;13.15;1.20;;;6.90;99.90;;;;;;5040691;28;20208;-81
2024/02/26 02:08:19;;;;;;;14.87;1.30;;;6.80;99.90;;;;;;5040773;28;20166;-82
2024/02/26 02:10:47;;;;;;;14.70;1.30;;;6.90;99.90;;;;;;5040410;28;20440;-81
2024/02/26 02:13:13;;;;;;;14.00;1.15;;;6.90;99.90;;;;;;5021390;28;20170;-81
2024/02/26 02:15:39;;;;;;;13.45;1.20;;;7.00;99.90;;;;;;5020561;28;20177;-81
2024/02/26 02:18:06;;;;;;;13.90;1.30;;;6.90;99.90;;;;;;5020755;28;20197;-81
2024/02/26 02:20:33;;;;;;;13.45;1.27;;;6.90;99.90;;;;;;5020290;28;20528;-80
2024/02/26 02:22:59;;;;;;;14.35;1.10;;;6.90;99.90;;;;;;5038605;28;20162;-81
2024/02/26 02:25:25;;;;;;;13.10;1.10;;;6.90;99.90;;;;;;5037273;28;20272;-80
2024/02/26 02:27:53;;;;;;;14.40;1.40;;;7.00;99.90;;;;;;5038373;28;20323;-81
2024/02/26 02:30:19;;;;;;;16.35;1.35;;;7.00;99.90;;;;;;5037873;28;20198;-80
2024/02/26 02:32:45;;;;;;;13.30;1.08;;;7.10;99.90;;;;;;5038082;28;20587;-80
2024/02/26 02:35:11;;;;;;;13.57;1.20;;;7.00;99.90;;;;;;5038593;28;20166;-81
2024/02/26 02:37:37;;;;;;;14.83;1.07;;;7.00;99.90;;;;;;5038315;28;20466;-81
2024/02/26 02:40:03;;;;;;;16.35;1.40;;;7.00;99.90;;;;;;5038104;28;20177;-80
2024/02/26 02:42:28;;;;;;;15.65;1.40;;;7.10;99.90;;;;;;5038027;28;20162;-80
2024/02/26 02:44:54;;;;;;;13.77;1.30;;;7.00;99.90;;;;;;5019943;28;20597;-81
2024/02/26 02:47:23;;;;;;;14.77;1.20;;;7.00;99.90;;;;;;5037225;28;20545;-80
2024/02/26 02:49:48;;;;;;;13.32;1.25;;;7.00;99.90;;;;;;5037353;28;20185;-79
2024/02/26 02:52:14;;;;;;;13.27;1.20;;;6.90;99.90;;;;;;5019922;28;20169;-81
2024/02/26 02:54:41;;;;;;;13.70;1.67;;;6.90;99.90;;;;;;5037789;28;20630;-81
2024/02/26 02:57:10;;;;;;;14.57;1.38;;;6.90;99.90;;;;;;5037994;28;20162;-81
2024/02/26 02:59:37;;;;;;;13.40;1.23;;;6.90;99.90;;;;;;5037700;28;20166;-81
2024/02/26 03:02:03;;;;;;;14.13;1.10;;;6.80;99.90;;;;;;5037364;28;20650;-81
2024/02/26 03:04:29;;;;;;;13.80;1.33;;;6.90;99.90;;;;;;5037393;28;20170;-81
2024/02/26 03:06:55;;;;;;;13.55;1.35;;;6.80;99.90;;;;;;5037008;28;20511;-81
2024/02/26 03:09:23;;;;;;;14.53;1.17;;;6.80;99.90;;;;;;5036606;28;20192;-81
2024/02/26 03:11:49;;;;;;;14.23;1.10;;;6.80;99.90;;;;;;5037014;28;20452;-81
2024/02/26 03:14:15;;;;;;;13.27;1.10;;;6.70;99.90;;;;;;5037105;28;20177;-81
2024/02/26 03:16:41;;;;;;;13.95;1.10;;;6.80;99.90;;;;;;5036905;28;20196;-81
2024/02/26 03:19:07;;;;;;;14.15;1.48;;;6.80;99.90;;;;;;5035779;28;20189;-81
2024/02/26 03:21:35;;;;;;;13.23;1.03;;;6.80;99.90;;;;;;5020132;28;20194;-82
2024/02/26 03:24:01;;;;;;;14.18;1.60;;;6.70;99.90;;;;;;5041443;28;20173;-82
2024/02/26 03:26:27;;;;;;;13.70;1.50;;;6.70;99.90;;;;;;5041024;28;20652;-82
2024/02/26 03:28:53;;;;;;;14.00;1.33;;;6.70;99.90;;;;;;5040771;28;20408;-82
2024/02/26 03:31:19;;;;;;;16.57;1.70;;;6.70;99.90;;;;;;5039810;28;20452;-82
2024/02/26 03:33:45;;;;;;;14.20;1.70;;;6.70;99.90;;;;;;5040624;28;20168;-83
2024/02/26 03:36:11;;;;;;;14.63;1.50;;;6.70;99.90;;;;;;5022530;28;20263;-82
2024/02/26 03:38:37;;;;;;;13.63;1.20;;;6.70;99.90;;;;;;5040176;28;20714;-82
2024/02/26 03:41:03;;;;;;;14.60;1.65;;;6.70;99.90;;;;;;5039018;28;20189;-82
2024/02/26 03:43:29;;;;;;;13.10;1.10;;;6.70;99.90;;;;;;5039678;28;20177;-82
2024/02/26 03:45:54;;;;;;;13.50;1.30;;;6.70;99.90;;;;;;5022075;28;20412;-82
2024/02/26 03:48:20;;;;;;;15.10;1.33;;;6.70;99.90;;;;;;5021985;28;20268;-82
2024/02/26 03:50:45;;;;;;;14.43;1.37;;;6.70;99.90;;;;;;5040120;28;20181;-82
2024/02/26 03:53:12;;;;;;;13.07;1.30;;;6.70;99.90;;;;;;5040010;28;20194;-82
2024/02/26 03:55:38;;;;;;;13.57;1.40;;;6.70;99.90;;;;;;5040649;28;20202;-82
2024/02/26 03:58:04;;;;;;;14.57;1.67;;;6.70;99.90;;;;;;5040658;28;20190;-82
2024/02/26 04:00:30;;;;;;;13.70;1.40;;;6.70;99.90;;;;;;5039876;28;20182;-82
2024/02/26 04:02:55;;;;;;;13.37;1.37;;;6.70;99.90;;;;;;5039728;28;20162;-82
2024/02/26 04:05:21;;;;;;;15.27;1.40;;;6.70;99.90;;;;;;5040053;28;20432;-82
2024/02/26 04:07:47;;;;;;;13.30;1.23;;;6.70;99.90;;;;;;5039958;28;20172;-83
2024/02/26 04:10:13;;;;;;;12.57;0.80;;;6.80;99.90;;;;;;5038601;28;20201;-83
2024/02/26 04:12:40;;;;;;;13.50;1.50;;;6.80;99.90;;;;;;5040608;28;20239;-83
2024/02/26 04:15:07;;;;;;;15.35;1.40;;;6.80;99.90;;;;;;5023070;28;20169;-83
2024/02/26 04:17:33;;;;;;;15.88;1.40;;;6.80;99.90;;;;;;5022540;28;20192;-83
2024/02/26 04:20:01;;;;;;;13.80;1.63;;;6.80;99.90;;;;;;5041438;28;20186;-83
2024/02/26 04:22:27;;;;;;;13.57;1.38;;;6.70;99.90;;;;;;5040655;28;20700;-83
2024/02/26 04:24:53;;;;;;;13.40;1.23;;;6.70;99.90;;;;;;5041262;28;20166;-83
2024/02/26 04:27:18;;;;;;;13.90;1.60;;;6.70;99.90;;;;;;5041163;28;20162;-83
2024/02/26 04:29:44;;;;;;;13.60;1.37;;;6.70;99.90;;;;;;5041889;28;20653;-83
2024/02/26 04:32:10;;;;;;;13.10;1.30;;;6.70;99.90;;;;;;5042011;28;20174;-83
2024/02/26 04:34:35;;;;;;;14.67;1.30;;;6.60;99.90;;;;;;5039776;28;20170;-81
2024/02/26 04:37:01;;;;;;;13.30;1.30;;;6.60;99.90;;;;;;5037076;28;20200;-83
2024/02/26 04:39:26;;;;;;;19.80;1.80;;;6.60;99.90;;;;;;5036227;28;20245;-82
2024/02/26 04:41:52;;;;;;;13.53;1.13;;;6.60;99.90;;;;;;5034958;28;20259;-82
2024/02/26 04:44:18;;;;;;;13.80;1.33;;;6.70;99.90;;;;;;5035629;28;20167;-82
2024/02/26 04:46:43;;;;;;;13.20;1.40;;;6.60;99.90;;;;;;5036503;28;20192;-82
2024/02/26 04:49:09;;;;;;;16.00;1.90;;;6.60;99.90;;;;;;5036434;28;20178;-82
2024/02/26 04:51:35;;;;;;;13.17;1.30;;;6.60;99.90;;;;;;5018341;28;20197;-82
2024/02/26 04:54:00;;;;;;;14.30;1.63;;;6.60;99.90;;;;;;5036695;28;20166;-82
2024/02/26 04:56:26;;;;;;;22.10;1.57;;;6.60;99.90;;;;;;5039385;28;20219;-82
2024/02/26 04:58:52;;;;;;;14.20;1.60;;;6.60;99.90;;;;;;5037963;28;20200;-82
2024/02/26 05:01:20;;;;;;;14.60;1.60;;;6.60;99.90;;;;;;5038459;28;20291;-83
2024/02/26 05:03:46;;;;;;;14.15;1.42;;;6.50;99.90;;;;;;5020637;28;20170;-82
2024/02/26 05:06:12;;;;;;;15.10;1.70;;;6.50;99.90;;;;;;5038940;28;20173;-82
2024/02/26 05:08:38;;;;;;;14.10;1.70;;;6.50;99.90;;;;;;5037817;28;20174;-82
2024/02/26 05:11:05;;;;;;;13.50;1.63;;;6.50;99.90;;;;;;5037974;28;20571;-82
2024/02/26 05:13:32;;;;;;;18.98;1.67;;;6.50;99.90;;;;;;5038124;28;20728;-82
2024/02/26 05:15:57;;;;;;;14.05;1.33;;;6.50;99.90;;;;;;5038308;28;20181;-82
2024/02/26 05:18:23;;;;;;;12.87;1.20;;;6.60;99.90;;;;;;5037836;28;20212;-82
2024/02/26 05:20:49;;;;;;;13.90;1.70;;;6.50;99.90;;;;;;5038240;28;20182;-82
2024/02/26 05:23:14;;;;;;;14.80;1.67;;;6.50;99.90;;;;;;5037869;28;20169;-82
2024/02/26 05:25:41;;;;;;;13.33;1.60;;;6.40;99.90;;;;;;5038183;28;20211;-81
2024/02/26 05:28:07;;;;;;;13.55;1.80;;;6.40;99.90;;;;;;5019836;28;20546;-82
2024/02/26 05:30:32;;;;;;;14.77;1.47;;;6.40;99.90;;;;;;5037862;28;20186;-82
2024/02/26 05:32:58;;;;;;;14.43;1.73;;;6.40;99.90;;;;;;5036569;28;20580;-82
2024/02/26 05:35:25;;;;;;;13.27;1.27;;;6.40;99.90;;;;;;5037982;28;20166;-83
2024/02/26 05:37:51;;;;;;;13.25;1.70;;;6.40;99.90;;;;;;5037595;28;20185;-82
2024/02/26 05:40:17;;;;;;;13.30;1.60;;;6.40;99.90;;;;;;5038298;28;20189;-82
2024/02/26 05:42:44;;;;;;;14.50;1.70;;;6.40;99.90;;;;;;5038377;28;20184;-82
2024/02/26 05:45:10;;;;;;;13.80;1.63;;;6.40;99.90;;;;;;5042308;28;20166;-83
2024/02/26 05:47:42;;;;;;;14.40;1.67;;;6.40;99.90;;;;;;5044191;28;20694;-83
2024/02/26 05:50:12;;;;;;;14.82;1.95;;;6.40;99.90;;;;;;5024663;28;20205;-83
2024/02/26 05:52:38;;;;;;;14.23;2.13;;;6.30;99.90;;;;;;5040672;28;20757;-83
2024/02/26 05:55:05;;;;;;;15.27;1.67;;;6.40;99.90;;;;;;5041460;28;20667;-83
2024/02/26 05:57:31;;;;;;;13.93;1.90;;;6.40;99.90;;;;;;5041267;28;20189;-83
2024/02/26 06:00:00;;;;;;;14.23;2.00;;;6.40;99.90;;;;;;5041273;28;20182;-83
2024/02/26 06:02:26;;;;;;;13.80;1.77;;;6.30;99.90;;;;;;5040670;28;20162;-83
2024/02/26 06:04:52;;;;;;;14.50;1.83;;;6.30;99.90;;;;;;5023312;28;20216;-83
2024/02/26 06:07:17;;;;;;;13.80;1.97;;;6.30;99.90;;;;;;5041405;28;20253;-83
2024/02/26 06:09:43;;;;;;;14.47;1.90;;;6.30;99.90;;;;;;5041300;28;20181;-83
2024/02/26 06:12:09;;;;;;;14.20;1.60;;;6.30;99.90;;;;;;5024183;28;20166;-83
2024/02/26 06:14:34;;;;;;;17.13;2.30;;;6.30;99.90;;;;;;5040138;28;20181;-83
2024/02/26 06:17:00;;;;;;;14.30;2.20;;;6.30;99.90;;;;;;5041181;28;20217;-83
2024/02/26 06:19:25;;;;;;;16.87;2.20;;;6.30;99.90;;;;;;5042035;28;20192;-83
2024/02/26 06:21:51;;;;;;;14.30;1.80;;;6.40;99.90;;;;;;5040923;28;20587;-83
2024/02/26 06:24:17;;;;;;;14.00;1.93;;;6.30;99.90;;;;;;5040485;28;20544;-83
2024/02/26 06:26:42;;;;;;;15.33;1.83;;;6.30;99.90;;;;;;5041129;28;20165;-83
2024/02/26 06:29:08;;;;;;;13.87;1.73;;;6.30;99.90;;;;;;5040954;28;20230;-83
2024/02/26 06:31:34;;;;;;;13.80;1.87;;;6.30;99.90;;;;;;5039636;28;20186;-83
2024/02/26 06:33:59;;;;;;;15.23;2.80;;;6.30;99.90;;;;;;5020721;28;20174;-82
2024/02/26 06:36:25;;;;;;;14.20;2.13;;;6.30;99.90;;;;;;5038004;28;20155;-82
2024/02/26 06:38:53;;;;;;;14.13;2.05;;;6.30;99.90;;;;;;5038191;28;20547;-82
2024/02/26 06:41:19;;;;;;;15.88;2.05;;;6.30;99.90;;;;;;5039603;28;20181;-83
2024/02/26 06:43:45;;;;;;;17.83;1.77;;;6.30;99.90;;;;;;5037781;28;20162;-83
2024/02/26 06:46:11;;;;;;;15.20;2.40;;;6.30;99.90;;;;;;5038289;28;20492;-83
2024/02/26 06:48:36;;;;;;;15.90;2.00;;;6.30;99.90;;;;;;5038407;28;20170;-83
2024/02/26 06:51:02;;;;;;;16.20;2.40;;;6.30;99.90;;;;;;5020877;28;20189;-83
2024/02/26 06:53:28;;;;;;;14.63;2.20;;;6.30;99.90;;;;;;5037672;28;20245;-82
2024/02/26 06:55:54;;;;;;;15.17;1.90;;;6.30;99.90;;;;;;5036854;28;20200;-82
2024/02/26 06:58:20;;;;;;;14.50;2.20;;;6.30;99.90;;;;;;5036165;28;20678;-82
2024/02/26 07:00:46;;;;;;;15.17;2.20;;;6.20;99.90;;;;;;5035284;28;20188;-81
2024/02/26 07:03:13;;;;;;;14.30;2.25;;;6.20;99.90;;;;;;5035402;28;20162;-82
2024/02/26 07:05:39;;;;;;;13.60;2.10;;;6.20;99.90;;;;;;5035824;28;20276;-81
2024/02/26 07:08:05;;;;;;;16.13;2.30;;;6.20;99.90;;;;;;5034352;28;20208;-82
2024/02/26 07:10:31;;;;;;;14.82;2.50;;;6.30;99.90;;;;;;5035008;28;20201;-81
2024/02/26 07:12:56;;;;;;;16.13;2.83;;;6.20;99.90;;;;;;5035592;28;20567;-82
2024/02/26 07:15:22;;;;;;;14.53;2.33;;;6.20;99.90;;;;;;5035889;28;20527;-82
2024/02/26 07:17:49;;;;;;;14.77;2.20;;;6.20;99.90;;;;;;5034880;28;20268;-81
2024/02/26 07:20:15;;;;;;;14.40;2.30;;;6.20;99.90;;;;;;5034617;28;20188;-81
2024/02/26 07:22:42;;;;;;;14.20;2.00;;;6.20;99.90;;;;;;5034830;28;20655;-82
2024/02/26 07:25:08;;;;;;;14.35;1.80;;;6.20;99.90;;;;;;5034586;28;20401;-82
2024/02/26 07:27:34;;;;;;;14.18;1.77;;;6.20;99.90;;;;;;5034680;28;20640;-82
2024/02/26 07:30:00;;;;;;;16.23;2.50;;;6.20;99.90;;;;;;5034430;28;20284;-81
2024/02/26 07:32:26;;;;;;;14.77;2.20;;;6.20;99.90;;;;;;5033746;28;20200;-82
2024/02/26 07:34:51;;;;;;;15.47;1.93;;;6.20;99.90;;;;;;5033125;28;20413;-82
2024/02/26 07:37:17;;;;;;;16.17;1.67;;;6.20;99.90;;;;;;5034294;28;20315;-81
2024/02/26 07:39:43;;;;;;;13.80;1.70;;;6.20;99.90;;;;;;5034950;28;20173;-82
2024/02/26 07:42:08;;;;;;;14.67;2.07;;;6.20;99.90;;;;;;5034223;28;20212;-81
2024/02/26 07:44:34;;;;;;;15.80;2.70;;;6.20;99.90;;;;;;5034238;28;20487;-82
2024/02/26 07:47:09;;;;;;;13.73;1.80;;;6.20;99.90;;;;;;5018832;28;20166;-82
2024/02/26 07:52:14;;;;;;;14.00;1.95;;;6.20;99.90;;;;;;5195651;23;20221;-83
2024/02/26 07:54:39;;;;;;;13.90;1.80;;;6.20;99.90;;;;;;5017770;28;20155;-83
2024/02/26 07:57:06;;;;;;;14.00;2.20;;;6.20;99.90;;;;;;5016112;28;20151;-82
2024/02/26 07:59:32;;;;;;;15.50;2.30;;;6.20;99.90;;;;;;5015678;28;20155;-82
2024/02/26 08:01:57;;;;;;;15.20;2.22;;;6.20;99.90;;;;;;5016412;28;20586;-81
2024/02/26 08:04:23;;;;;;;14.10;2.03;;;6.20;99.90;;;;;;5015706;28;20245;-82
2024/02/26 08:06:49;;;;;;;14.60;2.23;;;6.30;99.90;;;;;;5016234;28;20151;-82
2024/02/26 08:09:14;;;;;;;14.23;2.33;;;6.30;99.90;;;;;;5014585;28;20155;-81
2024/02/26 08:11:40;;;;;;;14.83;2.30;;;6.30;99.90;;;;;;4996702;28;20199;-82
2024/02/26 08:14:05;;;;;;;15.90;2.33;;;6.30;99.90;;;;;;4998111;28;20202;-82
2024/02/26 08:16:31;;;;;;;13.80;2.00;;;6.30;99.90;;;;;;5025651;28;20166;-82
2024/02/26 08:18:57;;;;;;;15.60;2.23;;;6.30;99.90;;;;;;5019925;28;20190;-83
2024/02/26 08:21:23;;;;;;;14.77;1.88;;;6.30;99.90;;;;;;5017424;28;20266;-83
2024/02/26 08:23:49;;;;;;;17.97;2.40;;;6.30;99.90;;;;;;4999810;28;20194;-83
2024/02/26 08:26:14;;;;;;;14.00;2.60;;;6.30;99.90;;;;;;4999885;28;20170;-83
2024/02/26 08:28:40;;;;;;;15.07;2.23;;;6.30;99.90;;;;;;5000586;28;20170;-83
2024/02/26 08:31:06;;;;;;;14.93;2.13;;;6.30;99.90;;;;;;5021573;28;20193;-83
2024/02/26 08:33:33;;;;;;;15.43;2.20;;;6.40;99.90;;;;;;5003664;28;20424;-83
2024/02/26 08:36:04;;;;;;;14.85;2.10;;;6.40;99.90;;;;;;5020681;28;20213;-83
2024/02/26 08:38:29;;;;;;;14.10;2.20;;;6.30;99.90;;;;;;5004247;28;20186;-82
2024/02/26 08:40:55;;;;;;;16.53;2.27;;;6.30;99.90;;;;;;5023382;28;20261;-82
2024/02/26 08:43:21;;;;;;;15.80;2.17;;;6.30;99.90;;;;;;5023553;28;20197;-82
2024/02/26 08:45:46;;;;;;;14.03;2.30;;;6.30;99.90;;;;;;5022747;28;20189;-82
2024/02/26 08:48:12;;;;;;;15.57;2.23;;;6.40;99.90;;;;;;5005520;28;20205;-83
2024/02/26 08:50:38;;;;;;;14.50;2.10;;;6.30;99.90;;;;;;5020612;28;20662;-83
2024/02/26 08:53:04;;;;;;;14.73;2.23;;;6.40;99.90;;;;;;5021262;28;20508;-82
2024/02/26 08:55:29;;;;;;;15.25;2.22;;;6.30;99.90;;;;;;5020826;28;20535;-83
2024/02/26 08:57:58;;;;;;;14.13;2.23;;;6.30;99.90;;;;;;5021000;28;20197;-82
2024/02/26 09:00:23;;;;;;;17.58;2.25;;;6.30;99.90;;;;;;5020356;28;20182;-82
2024/02/26 09:02:49;;;;;;;15.60;2.33;;;6.30;99.90;;;;;;5019958;28;20173;-82
2024/02/26 09:05:15;;;;;;;16.10;2.10;;;6.40;99.90;;;;;;5002650;28;20175;-82
2024/02/26 09:07:41;;;;;;;14.60;2.38;;;6.40;99.90;;;;;;5002964;28;20178;-83
2024/02/26 09:10:10;;;;;;;14.70;1.80;;;6.40;99.90;;;;;;5020599;28;20189;-83
2024/02/26 09:12:37;;;;;;;14.55;2.30;;;6.40;99.90;;;;;;5002565;28;20778;-82
2024/02/26 09:15:03;;;;;;;14.23;2.10;;;6.40;99.90;;;;;;5003049;28;20177;-83
2024/02/26 09:17:29;;;;;;;15.55;2.50;;;6.40;99.90;;;;;;5019916;28;20209;-83
2024/02/26 09:19:55;;;;;;;17.60;2.47;;;6.30;99.90;;;;;;5020363;28;20182;-83
2024/02/26 09:22:20;;;;;;;15.50;1.97;;;6.40;99.90;;;;;;5020267;28;20170;-83
2024/02/26 09:24:46;;;;;;;15.80;2.60;;;6.30;99.90;;;;;;5020147;28;20159;-83
2024/02/26 09:27:12;;;;;;;15.37;2.53;;;6.30;99.90;;;;;;5019503;28;20193;-83
2024/02/26 09:29:38;;;;;;;15.00;2.37;;;6.30;99.90;;;;;;5002386;28;20257;-83
2024/02/26 09:32:03;;;;;;;15.17;2.40;;;6.30;99.90;;;;;;5020156;28;20185;-83
2024/02/26 09:34:29;;;;;;;14.90;2.40;;;6.30;99.90;;;;;;5019660;28;20159;-83
2024/02/26 09:36:55;;;;;;;14.00;1.93;;;6.30;99.90;;;;;;5000681;28;20414;-82
2024/02/26 09:39:21;;;;;;;14.70;2.50;;;6.30;99.90;;;;;;5017484;28;20708;-82
2024/02/26 09:41:48;;;;;;;15.43;2.80;;;6.30;99.90;;;;;;5016048;28;20210;-82
2024/02/26 09:44:20;;;;;;;15.18;2.35;;;6.30;99.90;;;;;;5016821;28;20189;-83
2024/02/26 09:46:52;;;;;;;15.10;2.90;;;6.30;99.90;;;;;;5017391;28;20159;-82
2024/02/26 09:49:21;;;;;;;15.55;2.40;;;6.40;99.90;;;;;;4999645;28;20293;-82
2024/02/26 09:51:50;;;;;;;15.50;2.70;;;6.40;99.90;;;;;;4999154;28;20276;-83
2024/02/26 09:54:16;;;;;;;14.80;2.63;;;6.30;99.90;;;;;;4999127;28;20667;-82
2024/02/26 09:56:43;;;;;;;15.80;2.45;;;6.40;99.90;;;;;;5016921;28;20182;-82
2024/02/26 09:59:17;;;;;;;15.65;2.47;;;6.40;99.90;;;;;;5017040;28;20201;-82
2024/02/26 10:01:48;;;;;;;17.85;2.85;;;6.40;99.90;;;;;;5016967;28;20218;-82
2024/02/26 10:04:15;;;;;;;15.20;2.55;;;6.40;99.90;;;;;;5017039;28;20225;-82
2024/02/26 10:06:43;;;;;;;14.35;2.28;;;6.40;99.90;;;;;;5017088;28;20170;-82
2024/02/26 10:09:10;;;;;;;15.40;2.70;;;6.30;99.90;;;;;;4999198;28;20178;-82
2024/02/26 10:11:38;;;;;;;15.57;2.63;;;6.40;99.90;;;;;;5016576;28;20187;-82
2024/02/26 10:14:04;;;;;;;16.02;3.17;;;6.40;99.90;;;;;;5016515;28;20167;-82
2024/02/26 10:16:30;;;;;;;15.87;3.17;;;6.40;99.90;;;;;;5016584;28;20162;-82
2024/02/26 10:18:56;;;;;;;15.30;3.10;;;6.50;99.90;;;;;;5016839;28;20190;-82
2024/02/26 10:21:22;;;;;;;17.90;2.40;;;6.50;99.90;;;;;;5016766;28;20245;-82
2024/02/26 10:23:48;;;;;;;14.90;2.55;;;6.50;99.90;;;;;;5016379;28;20189;-82
2024/02/26 10:26:15;;;;;;;15.95;2.85;;;6.70;99.90;;;;;;5016519;28;20159;-82
2024/02/26 10:28:45;;;;;;;15.73;3.10;;;6.70;99.90;;;;;;4999025;28;20308;-82
2024/02/26 10:31:11;;;;;;;16.13;2.75;;;6.80;99.90;;;;;;5016490;28;20198;-82
2024/02/26 10:33:38;;;;;;;15.57;3.08;;;6.90;99.90;;;;;;4999629;28;20177;-82
2024/02/26 10:36:05;;;;;;;15.00;2.50;;;7.00;99.90;;;;;;5016859;28;20202;-83
2024/02/26 10:38:32;;;;;;;17.30;3.00;;;7.00;99.90;;;;;;4999284;28;20198;-82
2024/02/26 10:40:58;;;;;;;16.40;2.88;;;7.00;99.90;;;;;;5016151;28;20190;-82
2024/02/26 10:43:26;;;;;;;15.63;3.00;;;7.10;99.90;;;;;;5016317;28;20170;-81
2024/02/26 10:45:51;;;;;;;15.00;2.80;;;7.10;99.90;;;;;;5016622;28;20386;-82
2024/02/26 10:48:18;;;;;;;15.23;3.00;;;7.10;99.90;;;;;;4998947;28;20185;-83
2024/02/26 10:50:44;;;;;;;15.00;2.30;;;7.20;99.90;;;;;;5015960;28;20233;-82
2024/02/26 10:53:31;;;;;;;14.70;2.60;;;7.30;99.90;;;;;;5015879;28;20165;-81
2024/02/26 10:56:07;;;;;;;17.52;2.92;;;7.20;99.90;;;;;;5022259;28;20216;-83
2024/02/26 10:58:34;;;;;;;16.85;3.13;;;7.20;99.90;;;;;;5024221;28;20244;-83
2024/02/26 11:01:00;;;;;;;14.77;2.80;;;7.20;99.90;;;;;;5019199;28;20193;-83
2024/02/26 11:03:28;;;;;;;17.58;2.70;;;7.30;99.90;;;;;;5019298;28;20167;-82
2024/02/26 11:05:55;;;;;;;16.08;2.70;;;7.40;99.90;;;;;;5000931;28;20246;-83
2024/02/26 11:08:23;;;;;;;14.18;1.95;;;7.30;99.90;;;;;;5018677;28;20209;-83
2024/02/26 11:10:53;;;;;;;14.73;2.63;;;7.30;99.90;;;;;;5019089;28;20265;-83
2024/02/26 11:13:21;;;;;;;14.75;2.80;;;7.50;99.90;;;;;;5018410;28;20173;-83
2024/02/26 11:15:48;;;;;;;18.10;2.78;;;7.50;99.90;;;;;;5018392;28;20170;-83
2024/02/26 11:18:16;;;;;;;15.05;2.47;;;7.40;99.90;;;;;;5018599;28;20197;-83
2024/02/26 11:20:43;;;;;;;14.25;2.50;;;7.40;99.90;;;;;;5018541;28;20202;-83
2024/02/26 11:23:08;;;;;;;16.15;3.00;;;7.40;99.90;;;;;;5017826;28;20190;-82
2024/02/26 11:25:39;;;;;;;13.87;2.33;;;7.40;99.90;;;;;;5018658;28;20166;-83
2024/02/26 11:28:12;;;;;;;17.70;2.63;;;7.40;99.90;;;;;;5018131;28;20284;-82
2024/02/26 11:30:43;;;;;;;18.05;2.80;;;7.30;99.90;;;;;;5001857;28;20253;-82
2024/02/26 11:33:09;;;;;;;16.00;3.25;;;7.30;99.90;;;;;;5019515;28;20159;-82
2024/02/26 11:35:38;;;;;;;17.08;2.80;;;7.50;99.90;;;;;;5019067;28;20505;-82
2024/02/26 11:38:06;;;;;;;17.80;3.42;;;7.50;99.90;;;;;;5019039;28;20190;-82
2024/02/26 11:40:33;;;;;;;16.33;2.65;;;7.50;99.90;;;;;;5018378;28;20187;-82
2024/02/26 11:42:58;;;;;;;19.77;2.63;;;7.40;99.90;;;;;;5000312;28;20173;-82
2024/02/26 11:45:39;;;;;;;16.97;2.67;;;7.40;99.90;;;;;;5018320;28;20190;-82
2024/02/26 11:48:15;;;;;;;17.27;3.35;;;7.40;99.90;;;;;;5019731;28;20166;-82
2024/02/26 11:50:47;;;;;;;14.95;2.90;;;7.60;99.90;;;;;;5001329;28;20202;-82
2024/02/26 11:53:35;;;;;;;14.88;2.35;;;7.70;99.90;;;;;;5018682;28;20216;-82
2024/02/26 11:56:26;;;;;;;15.95;3.10;;;7.60;99.90;;;;;;5001208;28;20169;-82
2024/02/26 11:59:06;;;;;;;18.85;2.97;;;7.60;99.90;;;;;;5000943;28;20186;-82
2024/02/26 12:01:47;;;;;;;16.88;2.88;;;7.60;99.90;;;;;;5000733;28;20183;-82
2024/02/26 12:04:18;;;;;;;17.20;2.63;;;7.50;99.90;;;;;;4999420;28;20230;-82
2024/02/26 12:06:56;;;;;;;16.38;2.70;;;7.40;99.90;;;;;;5017749;28;20244;-82
2024/02/26 12:09:32;;;;;;;16.55;2.70;;;7.40;99.90;;;;;;5018489;28;20158;-82
2024/02/26 12:11:58;;;;;;;16.75;2.75;;;7.60;99.90;;;;;;5018168;28;20197;-82
2024/02/26 12:14:26;;;;;;;15.97;2.83;;;7.60;99.90;;;;;;5017727;28;20174;-81
2024/02/26 12:16:53;;;;;;;15.65;2.78;;;7.80;99.90;;;;;;4998712;28;20417;-82
2024/02/26 12:19:18;;;;;;;14.32;2.25;;;7.90;99.90;;;;;;5017296;28;20225;-82
2024/02/26 12:21:44;;;;;;;14.20;2.33;;;7.80;99.90;;;;;;4999176;28;20209;-81
2024/02/26 12:24:12;;;;;;;14.97;2.40;;;7.70;99.90;;;;;;5016831;28;20169;-81
2024/02/26 12:26:38;;;;;;;15.20;2.92;;;7.70;99.90;;;;;;5016353;28;20564;-82
2024/02/26 12:29:04;;;;;;;15.70;2.83;;;7.70;99.90;;;;;;5016117;28;20213;-82
2024/02/26 12:31:32;;;;;;;14.50;2.50;;;7.80;99.90;;;;;;5016907;28;20190;-82
2024/02/26 12:34:02;;;;;;;15.18;2.60;;;7.80;99.90;;;;;;5015893;28;20200;-81
2024/02/26 12:36:28;;;;;;;16.50;2.63;;;7.70;99.90;;;;;;5016135;28;20715;-82
2024/02/26 12:38:53;;;;;;;14.93;3.17;;;7.70;99.90;;;;;;5016221;28;20229;-81
2024/02/26 12:41:22;;;;;;;14.07;2.60;;;7.70;99.90;;;;;;5015530;28;20421;-82
2024/02/26 12:43:47;;;;;;;15.60;2.47;;;7.70;99.90;;;;;;5016152;28;20488;-81
2024/02/26 12:46:15;;;;;;;17.73;3.27;;;7.70;99.90;;;;;;5015356;28;20565;-82
2024/02/26 12:48:43;;;;;;;17.45;3.72;;;7.70;99.90;;;;;;4997893;28;20174;-82